Time;durP1;ratioP1;P1;durP2;ratioP2;P2;SDS_P1;SDS_P2;PMS_P1;PMS_P2;Temp;Humidity;BMP_temperature;BMP_pressure;BME280_temperature;BME280_humidity;BME280_pressure;Samples;Min_cycle;Max_cycle;Signal;HPM_P1;HPM_P2
2023/09/28 00:02:50;;;;;;;12.23;4.90;;;;;;;22.71;100.00;100998.88;4944317;29;20142;-40
2023/09/28 00:05:16;;;;;;;9.13;4.25;;;;;;;22.73;100.00;101013.31;4945302;28;20154;-41
2023/09/28 00:07:44;;;;;;;8.43;4.25;;;;;;;22.76;100.00;101013.13;4951939;29;20087;-39
2023/09/28 00:10:12;;;;;;;9.70;4.80;;;;;;;22.73;100.00;101018.97;4948313;28;20066;-40
2023/09/28 00:12:46;;;;;;;12.38;4.57;;;;;;;22.68;100.00;101017.63;4943347;29;20062;-42
2023/09/28 00:15:13;;;;;;;9.10;4.18;;;;;;;22.69;100.00;101012.75;4948270;29;20051;-40
2023/09/28 00:17:40;;;;;;;11.63;5.07;;;;;;;22.67;100.00;101007.56;4949921;29;20055;-39
2023/09/28 00:20:19;;;;;;;10.65;4.20;;;;;;;22.68;100.00;101005.53;4947655;29;20136;-42
2023/09/28 00:22:47;;;;;;;10.48;4.57;;;;;;;22.72;100.00;101012.56;4938237;29;20051;-40
2023/09/28 00:25:16;;;;;;;10.73;4.63;;;;;;;22.73;100.00;101018.97;4940219;28;20532;-39
2023/09/28 00:27:44;;;;;;;11.48;4.90;;;;;;;22.70;100.00;101011.47;4949568;29;20051;-40
2023/09/28 00:30:18;;;;;;;10.23;4.80;;;;;;;22.66;100.00;101017.34;4951182;29;20059;-39
2023/09/28 00:32:49;;;;;;;11.38;4.22;;;;;;;22.69;100.00;101016.38;4950843;29;20098;-40
2023/09/28 00:35:17;;;;;;;8.80;3.78;;;;;;;22.65;100.00;101012.19;4951502;29;20047;-41
2023/09/28 00:37:44;;;;;;;10.93;4.22;;;;;;;22.66;100.00;101022.22;4948780;29;20051;-42
2023/09/28 00:42:57;;;;;;;9.05;4.00;;;;;;;22.70;100.00;101022.81;4941743;29;20078;-42
2023/09/28 00:45:25;;;;;;;9.20;4.55;;;;;;;22.74;100.00;101017.72;4948636;29;20047;-41
2023/09/28 00:47:59;;;;;;;12.13;3.85;;;;;;;22.70;100.00;101014.28;4946491;29;20126;-41
2023/09/28 00:50:28;;;;;;;8.80;4.33;;;;;;;22.73;100.00;101011.28;4948234;29;20051;-41
2023/09/28 00:52:59;;;;;;;10.85;4.32;;;;;;;22.74;100.00;101018.50;4945736;29;20051;-39
2023/09/28 00:55:29;;;;;;;10.63;4.47;;;;;;;22.75;100.00;101016.44;4948158;29;20051;-40
2023/09/28 00:58:01;;;;;;;8.63;4.13;;;;;;;22.73;100.00;101014.09;4947134;28;20102;-42
2023/09/28 01:00:31;;;;;;;8.82;3.83;;;;;;;22.73;100.00;101018.97;4949930;29;20069;-41
2023/09/28 01:03:00;;;;;;;8.60;4.15;;;;;;;22.75;100.00;101022.13;4947383;29;20051;-40
2023/09/28 01:05:39;;;;;;;9.95;3.83;;;;;;;22.73;100.00;101018.97;4947649;29;20505;-40
2023/09/28 01:08:07;;;;;;;8.93;4.15;;;;;;;22.70;100.00;101011.47;4946379;29;20051;-39
2023/09/28 01:10:36;;;;;;;7.72;3.97;;;;;;;22.73;100.00;101010.47;4948360;29;20062;-40
2023/09/28 01:13:23;;;;;;;8.73;4.22;;;;;;;22.70;100.00;101008.63;4947926;28;20052;-41
2023/09/28 01:15:50;;;;;;;10.07;4.65;;;;;;;22.70;100.00;100997.28;4941914;28;20545;-38
2023/09/28 01:18:18;;;;;;;8.27;3.70;;;;;;;22.65;100.00;101003.69;4949430;29;20051;-42
2023/09/28 01:20:47;;;;;;;7.07;3.65;;;;;;;22.66;100.00;100997.53;4949069;28;20051;-41
2023/09/28 01:23:14;;;;;;;6.80;3.72;;;;;;;22.68;100.00;101005.53;4943548;28;20087;-41
2023/09/28 01:25:44;;;;;;;8.57;3.80;;;;;;;22.67;100.00;101012.44;4939990;28;20052;-41
2023/09/28 01:28:10;;;;;;;8.23;3.92;;;;;;;22.70;100.00;101017.13;4949166;29;20055;-39
2023/09/28 01:30:37;;;;;;;8.60;4.10;;;;;;;22.71;100.00;101002.47;4949763;29;20098;-40
2023/09/28 01:33:04;;;;;;;8.45;4.00;;;;;;;22.71;100.00;101016.63;4948772;29;20058;-42
2023/09/28 01:35:31;;;;;;;6.90;3.70;;;;;;;22.68;100.00;101022.53;4945982;28;20580;-39
2023/09/28 01:38:03;;;;;;;10.48;4.40;;;;;;;22.67;100.00;101018.13;4949906;29;20065;-42
2023/09/28 01:40:30;;;;;;;10.23;4.50;;;;;;;22.63;100.00;101004.19;4950135;29;20053;-39
2023/09/28 01:42:57;;;;;;;8.15;3.78;;;;;;;22.66;100.00;101011.69;4949528;29;20501;-41
2023/09/28 01:45:24;;;;;;;7.55;3.67;;;;;;;22.66;100.00;101016.56;4948892;28;20071;-42
2023/09/28 01:47:51;;;;;;;7.47;3.80;;;;;;;22.66;100.00;101016.56;4944923;29;20138;-38
2023/09/28 01:50:18;;;;;;;8.02;3.85;;;;;;;22.64;100.00;101013.47;4943015;29;20714;-41
2023/09/28 01:52:45;;;;;;;7.22;3.40;;;;;;;22.67;100.00;101016.06;4949397;28;20075;-40
2023/09/28 01:55:11;;;;;;;8.82;3.80;;;;;;;22.68;100.00;101011.19;4949706;29;20054;-40
2023/09/28 01:57:38;;;;;;;7.20;4.00;;;;;;;22.67;100.00;101016.06;4948962;29;20509;-42
2023/09/28 02:00:16;;;;;;;10.55;4.13;;;;;;;22.68;100.00;101022.53;4946640;28;20087;-38
2023/09/28 02:02:43;;;;;;;8.70;3.55;;;;;;;22.76;100.00;101021.63;4942418;29;20078;-41
2023/09/28 02:05:13;;;;;;;8.95;4.05;;;;;;;22.73;100.00;101018.97;4948576;29;20106;-40
2023/09/28 02:07:40;;;;;;;7.95;3.70;;;;;;;22.68;100.00;101016.88;4949596;29;20520;-40
2023/09/28 02:10:09;;;;;;;8.25;3.70;;;;;;;22.69;100.00;101019.22;4945249;29;20147;-41
2023/09/28 02:12:40;;;;;;;7.38;3.58;;;;;;;22.68;100.00;101017.63;4946163;29;20059;-39
2023/09/28 02:15:09;;;;;;;7.88;3.63;;;;;;;22.68;100.00;101008.38;4943726;28;20052;-43
2023/09/28 02:17:37;;;;;;;8.98;4.32;;;;;;;22.66;100.00;101008.06;4948087;29;20111;-40
2023/09/28 02:20:10;;;;;;;8.45;4.05;;;;;;;22.64;100.00;101007.81;4904941;29;20138;-42
2023/09/28 02:22:43;;;;;;;5.75;3.20;;;;;;;22.65;100.00;101009.34;4948423;29;20588;-42
2023/09/28 02:25:29;;;;;;;7.63;4.00;;;;;;;22.66;100.00;101013.72;4950355;29;20051;-39
2023/09/28 02:27:55;;;;;;;8.05;3.38;;;;;;;22.66;100.00;101006.03;4950748;28;20058;-42
2023/09/28 02:30:23;;;;;;;7.50;3.78;;;;;;;22.63;100.00;101014.72;4951764;28;20043;-40
2023/09/28 02:32:51;;;;;;;7.55;3.50;;;;;;;22.62;100.00;101019.63;4950651;29;20066;-40
2023/09/28 02:35:18;;;;;;;8.02;3.88;;;;;;;22.62;100.00;101011.13;4947443;29;20597;-40
2023/09/28 02:37:48;;;;;;;9.48;3.75;;;;;;;22.62;100.00;101013.16;4948433;29;20138;-41
2023/09/28 02:40:16;;;;;;;7.00;3.78;;;;;;;22.61;100.00;101015.22;4948070;29;20051;-42
2023/09/28 02:42:43;;;;;;;8.20;3.85;;;;;;;22.65;100.00;101012.19;4953481;29;20152;-41
2023/09/28 02:45:13;;;;;;;6.72;3.17;;;;;;;22.64;100.00;101011.38;4953753;29;20047;-40
2023/09/28 02:47:43;;;;;;;6.68;3.20;;;;;;;22.64;100.00;101014.22;4949995;28;20082;-40
2023/09/28 02:50:11;;;;;;;8.57;3.88;;;;;;;22.63;100.00;101029.69;4952968;29;20048;-42
2023/09/28 02:52:39;;;;;;;6.65;3.25;;;;;;;22.63;100.00;101026.84;4953023;28;20137;-41
2023/09/28 02:55:07;;;;;;;6.60;3.53;;;;;;;22.62;100.00;101036.63;4951624;29;20142;-40
2023/09/28 02:57:35;;;;;;;10.55;4.13;;;;;;;22.60;100.00;101041.19;4953106;29;20110;-40
2023/09/28 03:00:18;;;;;;;6.93;3.63;;;;;;;22.62;100.00;101033.78;4952634;29;20106;-43
2023/09/28 03:02:45;;;;;;;5.70;3.25;;;;;;;22.59;100.00;101039.66;4951234;28;20043;-41
2023/09/28 03:05:11;;;;;;;7.75;3.55;;;;;;;22.60;100.00;101044.81;4953339;29;20043;-40
2023/09/28 03:07:39;;;;;;;6.75;3.30;;;;;;;22.60;100.00;101041.19;4952982;29;20134;-40
2023/09/28 03:10:06;;;;;;;7.10;3.47;;;;;;;22.57;100.00;101040.16;4935379;29;20048;-39
2023/09/28 03:12:33;;;;;;;8.63;3.28;;;;;;;22.57;100.00;101045.03;4944859;29;20110;-42
2023/09/28 03:14:59;;;;;;;7.22;3.47;;;;;;;22.61;100.00;101048.44;4941735;29;20482;-40
2023/09/28 03:17:26;;;;;;;6.20;3.55;;;;;;;22.58;100.00;101050.19;4950861;28;20047;-40
2023/09/28 03:19:53;;;;;;;6.00;3.20;;;;;;;22.57;100.00;101059.19;4951904;29;20163;-40
2023/09/28 03:22:20;;;;;;;6.28;3.15;;;;;;;22.58;100.00;101052.28;4950727;28;20058;-40
2023/09/28 03:24:47;;;;;;;6.75;3.40;;;;;;;22.58;100.00;101052.28;4952576;29;20059;-41
2023/09/28 03:27:13;;;;;;;7.43;3.45;;;;;;;22.57;100.00;101062.03;4951124;29;20605;-40
2023/09/28 03:29:41;;;;;;;7.47;3.65;;;;;;;22.55;100.00;101064.59;4952092;29;20130;-40
2023/09/28 03:32:08;;;;;;;6.18;3.15;;;;;;;22.56;100.00;101068.97;4943717;29;20051;-41
2023/09/28 03:34:36;;;;;;;6.97;3.45;;;;;;;22.61;100.00;101071.13;4951342;29;20066;-42
2023/09/28 03:37:04;;;;;;;7.93;3.53;;;;;;;22.60;100.00;101072.38;4951972;29;20117;-41
2023/09/28 03:39:30;;;;;;;7.80;3.40;;;;;;;22.59;100.00;101068.00;4949057;28;20124;-38
2023/09/28 03:41:57;;;;;;;9.52;3.47;;;;;;;22.58;100.00;101070.03;4948578;29;20615;-41
2023/09/28 03:44:23;;;;;;;7.03;3.55;;;;;;;22.54;100.00;101080.78;4951123;28;20188;-43
2023/09/28 03:46:50;;;;;;;6.68;3.55;;;;;;;22.56;100.00;101080.31;4951497;29;20469;-40
2023/09/28 03:49:16;;;;;;;7.88;3.40;;;;;;;22.54;100.00;101083.63;4952348;29;20055;-40
2023/09/28 03:51:43;;;;;;;6.97;3.30;;;;;;;22.56;100.00;101078.25;4950962;28;20055;-41
2023/09/28 03:54:09;;;;;;;7.13;3.35;;;;;;;22.55;100.00;101082.38;4952217;29;20150;-40
2023/09/28 03:56:36;;;;;;;10.20;3.88;;;;;;;22.56;100.00;101089.59;4951892;29;20428;-40
2023/09/28 03:59:03;;;;;;;7.95;3.20;;;;;;;22.54;100.00;101089.28;4952263;29;20524;-41
2023/09/28 04:01:29;;;;;;;6.75;3.20;;;;;;;22.53;100.00;101089.78;4943146;29;20052;-42
2023/09/28 04:03:56;;;;;;;7.40;3.20;;;;;;;22.53;100.00;101086.94;4937782;29;20075;-42
2023/09/28 04:06:23;;;;;;;6.65;3.30;;;;;;;22.52;100.00;101093.91;4943361;28;20052;-41
2023/09/28 04:08:50;;;;;;;5.88;3.13;;;;;;;22.54;100.00;101103.47;4951499;29;20946;-40
2023/09/28 04:11:16;;;;;;;7.75;3.38;;;;;;;22.55;100.00;101092.91;4951717;29;20078;-41
2023/09/28 04:13:44;;;;;;;8.60;3.30;;;;;;;22.56;100.00;101100.13;4931427;29;20145;-40
2023/09/28 04:16:11;;;;;;;8.77;3.13;;;;;;;22.53;100.00;101095.44;4950990;29;20518;-40
2023/09/28 04:18:37;;;;;;;7.90;3.60;;;;;;;22.55;100.00;101098.59;4951720;29;20621;-41
2023/09/28 04:21:04;;;;;;;5.60;2.92;;;;;;;22.52;100.00;101105.22;4951317;29;20469;-41
2023/09/28 04:23:30;;;;;;;8.93;3.50;;;;;;;22.50;100.00;101113.44;4931471;29;20138;-43
2023/09/28 04:25:57;;;;;;;5.80;3.00;;;;;;;22.49;100.00;101107.00;4944539;28;20051;-41
2023/09/28 04:28:24;;;;;;;6.47;3.25;;;;;;;22.51;100.00;101112.19;4934750;29;20163;-41
2023/09/28 04:30:51;;;;;;;7.97;3.20;;;;;;;22.48;100.00;101110.31;4951008;29;20554;-43
2023/09/28 04:33:18;;;;;;;6.10;3.03;;;;;;;22.48;100.00;101113.16;4948413;28;20100;-40
2023/09/28 04:35:44;;;;;;;6.78;3.22;;;;;;;22.48;100.00;101122.41;4948182;29;20115;-42
2023/09/28 04:38:11;;;;;;;6.45;3.38;;;;;;;22.50;100.00;101122.72;4951257;29;20569;-41
2023/09/28 04:40:38;;;;;;;5.50;3.03;;;;;;;22.48;100.00;101127.31;4942695;29;20051;-42
2023/09/28 04:43:05;;;;;;;6.20;3.28;;;;;;;22.46;100.00;101119.31;4944812;29;20073;-39
2023/09/28 04:45:31;;;;;;;8.20;3.30;;;;;;;22.49;100.00;101134.53;4949081;28;20083;-39
2023/09/28 04:47:58;;;;;;;5.20;2.80;;;;;;;22.50;100.00;101131.22;4950887;29;20059;-42
2023/09/28 04:50:25;;;;;;;3.90;2.67;;;;;;;22.48;100.00;101127.31;4950535;29;20051;-39
2023/09/28 04:52:51;;;;;;;5.10;3.15;;;;;;;22.45;100.00;101126.25;4948804;29;20055;-41
2023/09/28 04:55:18;;;;;;;6.10;2.90;;;;;;;22.48;100.00;101130.16;4947193;29;20054;-42
2023/09/28 04:57:45;;;;;;;6.88;3.33;;;;;;;22.49;100.00;101143.03;4950900;29;20058;-42
2023/09/28 05:00:16;;;;;;;5.82;3.50;;;;;;;22.49;100.00;101143.84;4950763;29;20047;-40
2023/09/28 05:02:47;;;;;;;7.63;3.90;;;;;;;22.48;100.00;101145.06;4938973;28;20047;-41
2023/09/28 05:05:15;;;;;;;5.13;2.80;;;;;;;22.49;100.00;101152.31;4950747;29;20063;-40
2023/09/28 05:07:42;;;;;;;6.15;3.30;;;;;;;22.49;100.00;101145.88;4949429;29;20086;-39
2023/09/28 05:10:09;;;;;;;5.20;3.10;;;;;;;22.48;100.00;101150.75;4945132;29;20138;-41
2023/09/28 05:12:36;;;;;;;5.03;2.58;;;;;;;22.48;100.00;101156.41;4945937;29;20085;-40
2023/09/28 05:15:03;;;;;;;5.95;3.10;;;;;;;22.49;100.00;101160.03;4950856;29;20583;-41
2023/09/28 05:17:31;;;;;;;6.35;3.30;;;;;;;22.50;100.00;101159.56;4940650;28;20052;-43
2023/09/28 05:19:58;;;;;;;8.93;3.30;;;;;;;22.48;100.00;101164.16;4942917;29;20162;-38
2023/09/28 05:22:26;;;;;;;6.38;3.10;;;;;;;22.50;100.00;101162.38;4948112;28;20061;-41
2023/09/28 05:24:53;;;;;;;5.82;2.90;;;;;;;22.48;100.00;101162.06;4949917;29;20051;-43
2023/09/28 05:27:20;;;;;;;4.75;2.60;;;;;;;22.48;100.00;101155.66;4950775;29;20102;-40
2023/09/28 05:29:46;;;;;;;6.55;3.00;;;;;;;22.46;100.00;101153.31;4948385;29;20491;-41
2023/09/28 05:32:13;;;;;;;5.13;3.10;;;;;;;22.46;100.00;101147.63;4942878;29;20085;-40
2023/09/28 05:34:39;;;;;;;6.68;3.05;;;;;;;22.47;100.00;101145.59;4941126;28;20054;-42
2023/09/28 05:37:06;;;;;;;5.38;2.92;;;;;;;22.47;100.00;101148.44;4949029;29;20497;-40
2023/09/28 05:39:33;;;;;;;6.45;3.08;;;;;;;22.44;100.00;101153.00;4946503;29;20732;-40
2023/09/28 05:42:01;;;;;;;4.40;2.80;;;;;;;22.47;100.00;101148.44;4942726;29;20051;-40
2023/09/28 05:44:29;;;;;;;7.35;3.10;;;;;;;22.45;100.00;101136.78;4944624;29;20052;-41
2023/09/28 05:46:56;;;;;;;5.90;3.10;;;;;;;22.47;100.00;101142.75;4942122;29;20139;-41
2023/09/28 05:49:22;;;;;;;7.32;3.42;;;;;;;22.44;100.00;101135.25;4945843;28;20047;-40
2023/09/28 05:51:49;;;;;;;5.63;3.00;;;;;;;22.44;100.00;101141.66;4947706;29;20509;-41
2023/09/28 05:54:15;;;;;;;4.72;2.97;;;;;;;22.45;100.00;101151.75;4948863;29;20047;-42
2023/09/28 05:56:44;;;;;;;5.07;2.58;;;;;;;22.47;100.00;101162.59;4942476;29;20059;-40
2023/09/28 05:59:10;;;;;;;5.28;2.50;;;;;;;22.55;100.00;101175.09;4945032;29;20126;-40
2023/09/28 06:01:37;;;;;;;7.03;3.20;;;;;;;22.51;100.00;101183.00;4946653;28;20126;-41
2023/09/28 06:04:04;;;;;;;6.75;2.97;;;;;;;22.56;100.00;101193.63;4946825;28;20055;-41
2023/09/28 06:06:31;;;;;;;10.65;3.10;;;;;;;22.56;100.00;101193.63;4951571;28;20057;-41
2023/09/28 06:08:57;;;;;;;5.20;2.70;;;;;;;22.53;100.00;101203.13;4947704;29;20539;-42
2023/09/28 06:11:24;;;;;;;7.63;3.42;;;;;;;22.48;100.00;101201.75;4946599;29;20059;-39
2023/09/28 06:13:50;;;;;;;4.35;2.70;;;;;;;22.54;100.00;101204.69;4945277;29;20065;-40
2023/09/28 06:16:36;;;;;;;6.20;2.88;;;;;;;22.53;100.00;101214.44;4949901;29;20425;-39
2023/09/28 06:19:03;;;;;;;3.80;2.60;;;;;;;22.51;100.00;101219.84;4940212;29;20142;-40
2023/09/28 06:21:30;;;;;;;5.60;2.63;;;;;;;22.49;100.00;101220.31;4947627;29;20040;-39
2023/09/28 06:23:57;;;;;;;7.70;2.65;;;;;;;22.52;100.00;101229.91;4940051;29;20051;-40
2023/09/28 06:26:23;;;;;;;7.13;2.75;;;;;;;22.53;100.00;101237.13;4945959;29;20065;-39
2023/09/28 06:29:07;;;;;;;6.15;3.00;;;;;;;22.52;100.00;101235.56;4935644;29;20051;-41
2023/09/28 06:31:33;;;;;;;5.93;2.75;;;;;;;22.51;100.00;101239.69;4945017;29;20051;-40
2023/09/28 06:34:00;;;;;;;5.70;2.80;;;;;;;22.52;100.00;101249.72;4952906;29;20058;-37
2023/09/28 06:36:28;;;;;;;4.85;2.72;;;;;;;22.50;100.00;101235.25;4946257;29;20047;-40
2023/09/28 06:39:06;;;;;;;5.88;2.70;;;;;;;22.52;100.00;101244.06;4948126;28;20125;-39
2023/09/28 06:41:33;;;;;;;6.57;2.60;;;;;;;22.51;100.00;101251.00;4943343;28;20402;-40
2023/09/28 06:43:59;;;;;;;4.38;2.70;;;;;;;22.51;100.00;101251.00;4945027;29;20059;-39
2023/09/28 06:46:26;;;;;;;4.40;2.53;;;;;;;22.51;100.00;101251.78;4951345;29;20549;-40
2023/09/28 06:48:52;;;;;;;4.30;2.58;;;;;;;22.52;100.00;101252.56;4950159;29;20593;-42
2023/09/28 06:51:21;;;;;;;4.97;2.50;;;;;;;22.51;100.00;101245.34;4947883;29;20055;-40
2023/09/28 06:53:48;;;;;;;5.65;2.80;;;;;;;22.51;100.00;101240.44;4952932;29;20063;-40
2023/09/28 06:56:16;;;;;;;5.93;2.60;;;;;;;22.49;100.00;101259.19;4953244;29;20138;-40
2023/09/28 06:58:43;;;;;;;4.50;2.70;;;;;;;22.56;100.00;101273.78;4952993;29;20063;-42
2023/09/28 07:01:09;;;;;;;3.63;2.30;;;;;;;22.56;100.00;101276.59;4949997;29;20524;-41
2023/09/28 07:03:36;;;;;;;6.82;2.80;;;;;;;22.55;100.00;101266.56;4948350;29;20077;-40
2023/09/28 07:06:05;;;;;;;9.20;3.13;;;;;;;22.53;100.00;101271.91;4940909;29;20682;-40
2023/09/28 07:08:31;;;;;;;6.13;2.70;;;;;;;22.56;100.00;101275.81;4949455;29;20057;-40
2023/09/28 07:10:58;;;;;;;7.15;2.97;;;;;;;22.56;100.00;101273.78;4944279;29;20059;-41
2023/09/28 07:13:25;;;;;;;7.18;2.55;;;;;;;22.56;100.00;101272.97;4948749;29;20561;-40
2023/09/28 07:15:51;;;;;;;4.25;2.20;;;;;;;22.61;100.00;101272.31;4946157;28;20122;-40
2023/09/28 07:18:18;;;;;;;5.90;3.03;;;;;;;22.57;100.00;101278.16;4952813;29;20051;-42
2023/09/28 07:20:46;;;;;;;8.30;2.75;;;;;;;22.59;100.00;101281.31;4949227;28;20086;-41
2023/09/28 07:23:12;;;;;;;6.70;2.63;;;;;;;22.62;100.00;101268.19;4947836;29;20051;-41
2023/09/28 07:25:40;;;;;;;5.25;2.30;;;;;;;22.52;100.00;101259.03;4952404;29;20113;-39
2023/09/28 07:28:06;;;;;;;5.40;2.50;;;;;;;22.54;100.00;101267.03;4949541;29;20106;-39
2023/09/28 07:30:35;;;;;;;7.18;2.80;;;;;;;22.49;100.00;101277.00;4947854;29;20051;-41
2023/09/28 07:33:04;;;;;;;3.78;2.30;;;;;;;22.64;100.00;101277.78;4950613;28;20399;-39
2023/09/28 07:35:31;;;;;;;5.45;2.50;;;;;;;22.71;100.00;101282.28;4950837;28;20046;-38
2023/09/28 07:37:58;;;;;;;6.80;2.35;;;;;;;22.68;100.00;101286.09;4951903;29;20648;-39
2023/09/28 07:40:25;;;;;;;6.13;2.72;;;;;;;22.67;100.00;101282.47;4947273;29;20514;-41
2023/09/28 07:43:12;;;;;;;6.28;2.30;;;;;;;22.67;100.00;101287.34;4942171;28;20051;-42
2023/09/28 07:45:38;;;;;;;8.93;2.88;;;;;;;22.65;100.00;101285.03;4946157;29;20142;-42
2023/09/28 07:48:05;;;;;;;7.65;2.58;;;;;;;22.65;100.00;101290.69;4947238;29;20051;-41
2023/09/28 07:50:32;;;;;;;6.20;2.55;;;;;;;22.62;100.00;101296.53;4943383;28;20134;-39
2023/09/28 07:52:59;;;;;;;3.45;2.22;;;;;;;22.61;100.00;101301.41;4950569;28;20059;-42
2023/09/28 07:55:26;;;;;;;6.93;2.50;;;;;;;22.59;100.00;101306.81;4943755;29;20189;-40
2023/09/28 07:57:53;;;;;;;6.15;2.50;;;;;;;22.59;100.00;101314.50;4946609;29;20051;-40
2023/09/28 08:00:37;;;;;;;7.38;2.78;;;;;;;22.59;100.00;101320.19;4946631;29;20429;-41
2023/09/28 08:03:04;;;;;;;7.05;2.97;;;;;;;22.62;100.00;101314.34;4951645;29;20054;-43
2023/09/28 08:05:31;;;;;;;5.97;2.65;;;;;;;22.59;100.00;101320.19;4940069;29;20070;-41
2023/09/28 08:07:58;;;;;;;4.32;2.47;;;;;;;22.65;100.00;101323.91;4948212;29;20051;-40
2023/09/28 08:10:39;;;;;;;6.20;2.80;;;;;;;22.62;100.00;101336.22;4948276;29;20066;-40
2023/09/28 08:13:06;;;;;;;5.68;2.63;;;;;;;22.58;100.00;101332.78;4942431;29;20477;-44
2023/09/28 08:15:32;;;;;;;7.15;2.70;;;;;;;22.58;100.00;101329.97;4946575;29;20147;-41
2023/09/28 08:18:03;;;;;;;10.02;2.95;;;;;;;22.51;100.00;101330.34;4950795;29;20051;-42
2023/09/28 08:20:33;;;;;;;6.30;2.75;;;;;;;22.51;100.00;101330.34;4949949;29;20051;-41
2023/09/28 08:23:01;;;;;;;7.03;2.92;;;;;;;22.51;100.00;101321.84;4949521;29;20059;-39
2023/09/28 08:25:31;;;;;;;7.75;3.15;;;;;;;22.55;100.00;101317.56;4938901;28;20051;-44
2023/09/28 08:27:57;;;;;;;8.65;3.22;;;;;;;22.50;100.00;101320.25;4937986;29;20059;-41
2023/09/28 08:30:24;;;;;;;10.00;3.83;;;;;;;22.47;100.00;101312.75;4941724;29;20051;-40
2023/09/28 08:32:52;;;;;;;11.32;2.90;;;;;;;22.42;100.00;101319.88;4949491;29;20086;-41
2023/09/28 08:35:20;;;;;;;7.20;2.58;;;;;;;22.43;100.00;101318.59;4948664;29;20047;-40
2023/09/28 08:37:47;;;;;;;9.45;3.13;;;;;;;22.46;100.00;101319.66;4946439;29;20054;-41
2023/09/28 08:40:13;;;;;;;8.77;3.42;;;;;;;22.63;100.00;101320.78;4943594;29;20585;-41
2023/09/28 08:42:43;;;;;;;7.25;3.00;;;;;;;22.52;100.00;101331.91;4944736;29;20102;-41
2023/09/28 08:45:14;;;;;;;10.60;3.47;;;;;;;22.41;100.00;101332.44;4940743;28;20591;-41
2023/09/28 08:47:49;;;;;;;12.20;4.68;;;;;;;22.35;100.00;101347.78;4936259;29;20135;-41
2023/09/28 08:50:22;;;;;;;12.93;4.20;;;;;;;22.33;100.00;101356.75;4944790;29;20059;-40
2023/09/28 08:52:50;;;;;;;12.93;4.13;;;;;;;22.31;100.00;101364.94;4938374;29;20518;-39
2023/09/28 08:55:19;;;;;;;12.77;4.10;;;;;;;22.33;100.00;101364.47;4936466;29;20134;-42
2023/09/28 08:57:46;;;;;;;12.25;4.65;;;;;;;22.27;100.00;101372.06;4939135;29;20556;-39
2023/09/28 09:00:14;;;;;;;14.23;4.72;;;;;;;22.40;100.00;101366.94;4945432;29;20058;-43
2023/09/28 09:02:43;;;;;;;8.45;3.40;;;;;;;22.53;100.00;101373.13;4940540;29;20101;-39
2023/09/28 09:05:13;;;;;;;9.27;3.65;;;;;;;22.57;100.00;101368.03;4948564;29;20553;-41
2023/09/28 09:07:43;;;;;;;12.80;4.25;;;;;;;22.39;100.00;101379.53;4947000;29;20059;-41
2023/09/28 09:10:12;;;;;;;12.73;3.88;;;;;;;22.41;100.00;101371.34;4945890;29;20469;-41
2023/09/28 09:12:39;;;;;;;12.65;4.28;;;;;;;22.41;100.00;101368.50;4949715;29;20139;-41
2023/09/28 09:15:06;;;;;;;12.88;5.57;;;;;;;22.40;100.00;101364.09;4950021;29;20057;-41
2023/09/28 09:17:35;;;;;;;12.73;4.35;;;;;;;22.43;100.00;101372.44;4942400;29;20173;-42
2023/09/28 09:20:05;;;;;;;14.38;4.32;;;;;;;22.36;100.00;101377.66;4938278;29;20048;-42
2023/09/28 09:22:31;;;;;;;11.10;3.92;;;;;;;22.33;100.00;101373.75;4938913;28;20134;-37
2023/09/28 09:25:18;;;;;;;11.30;4.20;;;;;;;22.33;100.00;101370.94;4939689;29;20047;-44
2023/09/28 09:27:45;;;;;;;12.73;4.03;;;;;;;22.42;100.00;101367.25;4943261;29;20051;-42
2023/09/28 09:30:14;;;;;;;13.15;4.03;;;;;;;22.52;100.00;101374.41;4945686;28;20067;-40
2023/09/28 09:32:42;;;;;;;13.35;3.72;;;;;;;22.32;100.00;101372.19;4942624;28;20043;-41
2023/09/28 09:35:11;;;;;;;15.15;4.45;;;;;;;22.41;100.00;101374.19;4937987;28;20055;-41
2023/09/28 09:37:45;;;;;;;16.90;4.82;;;;;;;22.33;100.00;101379.41;4939759;29;20126;-40
2023/09/28 09:40:13;;;;;;;12.35;4.03;;;;;;;22.37;100.00;101379.25;4944988;29;20454;-40
2023/09/28 09:42:41;;;;;;;12.98;4.85;;;;;;;22.44;100.00;101376.81;4941485;28;20498;-40
2023/09/28 09:45:11;;;;;;;16.15;4.43;;;;;;;22.41;100.00;101374.19;4934733;29;20546;-42
2023/09/28 09:47:48;;;;;;;18.10;4.30;;;;;;;22.52;100.00;101382.91;4943117;28;20134;-41
2023/09/28 09:50:17;;;;;;;9.93;4.00;;;;;;;22.47;100.00;101386.41;4948822;28;20047;-42
2023/09/28 09:52:47;;;;;;;14.93;3.95;;;;;;;22.51;100.00;101392.69;4947606;29;20162;-41
2023/09/28 09:55:14;;;;;;;14.85;4.30;;;;;;;22.52;100.00;101389.34;4942057;29;20059;-43
2023/09/28 09:57:42;;;;;;;8.57;3.28;;;;;;;22.53;100.00;101375.97;4945210;29;20421;-42
2023/09/28 10:00:15;;;;;;;15.48;4.15;;;;;;;22.55;100.00;101384.78;4949929;29;20057;-42
2023/09/28 10:02:44;;;;;;;13.77;4.60;;;;;;;22.53;100.00;101387.28;4948456;29;20098;-40
2023/09/28 10:05:14;;;;;;;11.00;3.67;;;;;;;22.55;100.00;101393.28;4942359;29;20115;-41
2023/09/28 10:07:42;;;;;;;12.80;3.60;;;;;;;22.53;100.00;101387.28;4948657;28;20527;-41
2023/09/28 10:10:14;;;;;;;15.73;4.28;;;;;;;22.49;100.00;101381.03;4949985;29;20047;-43
2023/09/28 10:12:42;;;;;;;12.68;3.60;;;;;;;22.47;100.00;101381.50;4932990;29;20043;-39
2023/09/28 10:15:10;;;;;;;14.23;3.95;;;;;;;22.52;100.00;101382.91;4947948;29;20054;-41
2023/09/28 10:17:37;;;;;;;11.65;3.60;;;;;;;22.52;100.00;101383.69;4920180;29;20137;-38
2023/09/28 10:20:06;;;;;;;11.80;4.28;;;;;;;22.55;100.00;101379.09;4943033;29;20059;-41
2023/09/28 10:22:34;;;;;;;9.73;3.83;;;;;;;22.54;100.00;101366.22;4945291;28;20102;-42
2023/09/28 10:25:00;;;;;;;11.48;3.70;;;;;;;22.55;100.00;101370.59;4948147;28;20075;-39
2023/09/28 10:27:27;;;;;;;11.68;4.25;;;;;;;22.56;100.00;101375.00;4947113;29;20130;-42
2023/09/28 10:30:16;;;;;;;11.10;3.28;;;;;;;22.56;100.00;101381.44;4944094;28;20055;-45
2023/09/28 10:32:43;;;;;;;11.38;3.50;;;;;;;22.58;100.00;101386.63;4944223;28;20047;-41
2023/09/28 10:35:29;;;;;;;10.73;3.78;;;;;;;22.58;100.00;101401.56;4948479;28;20043;-40
2023/09/28 10:38:20;;;;;;;10.07;3.58;;;;;;;22.59;100.00;101393.88;4946924;29;20376;-37
2023/09/28 10:41:01;;;;;;;11.52;3.55;;;;;;;22.58;100.00;101389.47;4945363;28;20425;-42
2023/09/28 10:43:33;;;;;;;7.60;2.95;;;;;;;22.60;100.00;101392.59;4949801;29;20046;-42
2023/09/28 10:46:04;;;;;;;10.50;4.53;;;;;;;22.61;100.00;101392.09;4941292;29;20047;-40
2023/09/28 10:48:41;;;;;;;10.18;3.47;;;;;;;22.63;100.00;101388.78;4940098;28;20043;-43
2023/09/28 10:51:20;;;;;;;19.77;3.75;;;;;;;22.63;100.00;101380.28;4941044;28;20460;-42
2023/09/28 10:53:47;;;;;;;8.30;3.42;;;;;;;22.61;100.00;101380.00;4943745;28;20051;-41
2023/09/28 10:56:14;;;;;;;10.07;3.70;;;;;;;22.62;100.00;101378.72;4944527;29;20052;-42
2023/09/28 10:58:41;;;;;;;20.05;3.78;;;;;;;22.62;100.00;101378.72;4936645;29;20572;-39
2023/09/28 11:01:10;;;;;;;10.68;3.67;;;;;;;22.61;100.00;101386.44;4940674;28;20055;-42
2023/09/28 11:03:37;;;;;;;10.40;3.70;;;;;;;22.61;100.00;101391.34;4941262;29;20047;-40
2023/09/28 11:06:05;;;;;;;6.40;3.42;;;;;;;22.59;100.00;101400.31;4948657;29;20063;-43
2023/09/28 11:08:32;;;;;;;11.13;4.07;;;;;;;22.64;100.00;101396.03;4946441;29;20497;-41
2023/09/28 11:11:01;;;;;;;8.95;3.53;;;;;;;22.65;100.00;101383.44;4941716;28;20478;-43
2023/09/28 11:13:29;;;;;;;7.32;3.30;;;;;;;22.62;100.00;101384.41;4942756;29;20048;-42
2023/09/28 11:15:56;;;;;;;8.93;3.25;;;;;;;22.62;100.00;101379.53;4949713;29;20086;-41
2023/09/28 11:18:26;;;;;;;9.25;3.20;;;;;;;22.75;100.00;101379.25;4946796;28;20529;-41
2023/09/28 11:21:03;;;;;;;11.90;3.53;;;;;;;22.75;100.00;101377.16;4942231;29;20055;-42
2023/09/28 11:23:29;;;;;;;9.98;3.67;;;;;;;22.69;100.00;101373.47;4942877;28;20047;-43
2023/09/28 11:25:57;;;;;;;10.52;3.88;;;;;;;22.65;100.00;101374.94;4951080;29;20047;-42